createdAt,value
2023-09-12T00:00:53.359Z,99929.55
2023-09-12T00:01:56.004Z,99929.73
2023-09-12T00:02:58.547Z,99929.83
2023-09-12T00:04:01.587Z,99931.70
2023-09-12T00:05:05.198Z,99928.43
2023-09-12T00:06:08.039Z,99930.33
2023-09-12T00:07:10.587Z,99930.33
2023-09-12T00:08:14.094Z,99926.09
2023-09-12T00:09:16.837Z,99920.95
2023-09-12T00:10:19.610Z,99925.45
2023-09-12T00:11:23.772Z,99927.52
2023-09-12T00:12:26.208Z,99933.16
2023-09-12T00:13:29.229Z,99934.95
2023-09-12T00:14:32.014Z,99933.16
2023-09-12T00:15:34.360Z,99930.64
2023-09-12T00:16:36.856Z,99924.75
2023-09-12T00:17:39.149Z,99928.02
2023-09-12T00:18:42.679Z,99934.84
2023-09-12T00:19:45.325Z,99924.36
2023-09-12T00:20:47.773Z,99930.25
2023-09-12T00:21:50.629Z,99929.11
2023-09-12T00:22:54.814Z,99923.58
2023-09-12T00:23:57.233Z,99935.58
2023-09-12T00:24:59.505Z,99925.73
2023-09-12T00:26:02.089Z,99928.79
2023-09-12T00:27:06.342Z,99925.13
2023-09-12T00:28:08.632Z,99929.33
2023-09-12T00:29:12.075Z,99925.59
2023-09-12T00:30:16.058Z,99918.44
2023-09-12T00:31:18.662Z,99928.67
2023-09-12T00:32:21.005Z,99930.17
2023-09-12T00:33:23.350Z,99923.78
2023-09-12T00:34:27.682Z,99924.42
2023-09-12T00:35:31.005Z,99927.88
2023-09-12T00:36:33.654Z,99926.75
2023-09-12T00:37:36.272Z,99928.44
2023-09-12T00:38:38.695Z,99932.00
2023-09-12T00:39:41.105Z,99930.31
2023-09-12T00:40:44.278Z,99928.73
2023-09-12T00:41:46.824Z,99926.11
2023-09-12T00:42:49.418Z,99929.96
2023-09-12T00:43:51.577Z,99927.84
2023-09-12T00:44:54.053Z,99933.34
2023-09-12T00:45:57.632Z,99934.58
2023-09-12T00:47:02.576Z,99939.28
2023-09-12T00:48:07.177Z,99936.11
2023-09-12T00:49:10.885Z,99937.23
2023-09-12T00:50:15.571Z,99935.00
2023-09-12T00:51:21.523Z,99938.02
2023-09-12T00:52:26.898Z,99936.42
2023-09-12T00:53:31.350Z,99929.60
2023-09-12T00:54:33.850Z,99932.33
2023-09-12T00:55:39.602Z,99929.88
2023-09-12T00:56:43.388Z,99933.55
2023-09-12T00:57:46.976Z,99923.23
2023-09-12T00:58:52.178Z,99929.52
2023-09-12T00:59:56.197Z,99930.55
2023-09-12T01:00:59.193Z,99925.52
2023-09-12T01:02:03.367Z,99927.55
2023-09-12T01:03:06.116Z,99934.69
2023-09-12T01:04:20.444Z,99934.87
2023-09-12T01:05:16.768Z,99928.80
2023-09-12T01:06:22.013Z,99929.62
2023-09-12T01:07:25.213Z,99928.87
2023-09-12T01:08:28.076Z,99930.66
2023-09-12T01:09:33.018Z,99930.66
2023-09-12T01:10:35.675Z,99937.86
2023-09-12T01:11:38.762Z,99931.80
2023-09-12T01:12:41.442Z,99937.11
2023-09-12T01:13:43.768Z,99934.59
2023-09-12T01:14:46.822Z,99935.62
2023-09-12T01:15:49.605Z,99939.17
2023-09-12T01:16:52.306Z,99933.83
2023-09-12T01:17:55.145Z,99936.28
2023-09-12T01:18:57.785Z,99932.52
2023-09-12T01:20:05.185Z,99928.80
2023-09-12T01:21:26.229Z,99929.24
2023-09-12T01:22:49.106Z,99928.86
2023-09-12T01:24:16.454Z,99929.52
2023-09-12T01:25:48.513Z,99928.48
2023-09-12T01:27:00.775Z,99928.30
2023-09-12T01:28:06.642Z,99920.98
2023-09-12T01:29:11.655Z,99926.05
2023-09-12T01:30:17.814Z,99926.05
2023-09-12T01:31:20.661Z,99920.80
2023-09-12T01:32:23.455Z,99920.59
2023-09-12T01:33:26.611Z,99918.72
2023-09-12T01:34:29.010Z,99918.62
2023-09-12T01:35:32.397Z,99920.20
2023-09-12T01:36:35.261Z,99923.39
2023-09-12T01:37:38.139Z,99923.19
2023-09-12T01:38:41.809Z,99921.13
2023-09-12T01:39:44.472Z,99912.95
2023-09-12T01:40:50.374Z,99922.50
2023-09-12T01:41:55.283Z,99919.70
2023-09-12T01:42:59.593Z,99915.09
2023-09-12T01:44:03.750Z,99914.05
2023-09-12T01:45:10.099Z,99919.19
2023-09-12T01:46:15.035Z,99921.66
2023-09-12T01:47:20.632Z,99918.83
2023-09-12T01:48:27.271Z,99920.41
2023-09-12T01:49:30.798Z,99915.38
2023-09-12T01:50:36.075Z,99927.00
2023-09-12T01:51:38.911Z,99924.48
2023-09-12T01:52:42.174Z,99929.73
2023-09-12T01:53:46.658Z,99927.64
2023-09-12T01:54:51.852Z,99923.90
2023-09-12T01:55:56.950Z,99922.86
2023-09-12T01:56:59.666Z,99923.53
2023-09-12T01:58:02.607Z,99919.98
2023-09-12T01:59:06.233Z,99928.59
2023-09-12T02:00:12.622Z,99926.16
2023-09-12T02:01:16.325Z,99920.13
2023-09-12T02:02:19.746Z,99925.37
2023-09-12T02:03:22.419Z,99924.36
2023-09-12T02:04:24.843Z,99924.36
2023-09-12T02:05:27.289Z,99925.22
2023-09-12T02:06:30.086Z,99926.80
2023-09-12T02:07:36.088Z,99928.78
2023-09-12T02:08:39.236Z,99934.39
2023-09-12T02:09:42.505Z,99934.58
2023-09-12T02:10:45.124Z,99937.05
2023-09-12T02:11:48.794Z,99933.89
2023-09-12T02:12:51.381Z,99930.90
2023-09-12T02:13:53.691Z,99932.06
2023-09-12T02:14:55.886Z,99932.06
2023-09-12T02:16:04.541Z,99926.55
2023-09-12T02:17:08.491Z,99931.48
2023-09-12T02:18:13.898Z,99934.69
2023-09-12T02:19:16.219Z,99930.93
2023-09-12T02:20:20.044Z,99938.60
2023-09-12T02:21:23.391Z,99929.53
2023-09-12T02:22:25.612Z,99930.80
2023-09-12T02:23:27.777Z,99929.38
2023-09-12T02:24:30.624Z,99933.28
2023-09-12T02:25:33.423Z,99931.79
2023-09-12T02:26:36.779Z,99937.39
2023-09-12T02:27:39.411Z,99937.55
2023-09-12T02:28:42.809Z,99933.50
2023-09-12T02:29:45.313Z,99933.80
2023-09-12T02:30:47.803Z,99938.43
2023-09-12T02:31:50.177Z,99928.16
2023-09-12T02:32:52.380Z,99930.88
2023-09-12T02:33:57.548Z,99932.47
2023-09-12T02:35:00.484Z,99930.58
2023-09-12T02:36:03.729Z,99932.27
2023-09-12T02:37:06.307Z,99932.11
2023-09-12T02:38:08.783Z,99935.39
2023-09-12T02:39:11.218Z,99933.50
2023-09-12T02:40:15.652Z,99931.66
2023-09-12T02:41:18.307Z,99935.86
2023-09-12T02:42:20.513Z,99939.08
2023-09-12T02:43:23.612Z,99939.08
2023-09-12T02:44:25.881Z,99943.28
2023-09-12T02:45:28.232Z,99942.26
2023-09-12T02:46:31.272Z,99945.64
2023-09-12T02:47:34.372Z,99940.97
2023-09-12T02:48:36.802Z,99941.70
2023-09-12T02:49:38.965Z,99943.39
2023-09-12T02:50:43.829Z,99943.39
2023-09-12T02:51:47.011Z,99944.05
2023-09-12T02:52:49.806Z,99944.91
2023-09-12T02:53:52.560Z,99953.50
2023-09-12T02:54:54.942Z,99939.48
2023-09-12T02:55:57.465Z,99950.74
2023-09-12T02:57:00.810Z,99953.50
2023-09-12T02:58:03.282Z,99951.24
2023-09-12T02:59:06.049Z,99951.44
2023-09-12T03:00:09.703Z,99952.37
2023-09-12T03:01:20.283Z,99951.97
2023-09-12T03:02:23.056Z,99953.16
2023-09-12T03:03:25.387Z,99951.56
2023-09-12T03:04:29.679Z,99949.20
2023-09-12T03:05:32.529Z,99944.27
2023-09-12T03:06:36.169Z,99945.19
2023-09-12T03:07:39.143Z,99954.80
2023-09-12T03:08:42.587Z,99951.52
2023-09-12T03:09:45.395Z,99953.66
2023-09-12T03:10:51.504Z,99953.75
2023-09-12T03:11:53.943Z,99949.34
2023-09-12T03:12:56.680Z,99952.80
2023-09-12T03:13:59.087Z,99942.33
2023-09-12T03:15:01.490Z,99945.04
2023-09-12T03:16:04.757Z,99940.67
2023-09-12T03:17:07.524Z,99949.34
2023-09-12T03:18:11.614Z,99945.90
2023-09-12T03:19:14.018Z,99944.21
2023-09-12T03:20:16.647Z,99946.89
2023-09-12T03:21:19.281Z,99946.89
2023-09-12T03:22:21.675Z,99942.52
2023-09-12T03:23:24.060Z,99946.25
2023-09-12T03:24:26.575Z,99951.23
2023-09-12T03:25:28.883Z,99946.53
2023-09-12T03:26:31.211Z,99947.45
2023-09-12T03:27:33.641Z,99945.77
2023-09-12T03:28:36.431Z,99949.15
2023-09-12T03:29:39.456Z,99950.14
2023-09-12T03:30:42.328Z,99952.69
2023-09-12T03:31:46.183Z,99955.97
2023-09-12T03:32:48.999Z,99956.04
2023-09-12T03:33:52.678Z,99956.71
2023-09-12T03:34:55.443Z,99955.78
2023-09-12T03:35:57.912Z,99960.00
2023-09-12T03:37:00.438Z,99957.22
2023-09-12T03:38:03.202Z,99955.37
2023-09-12T03:39:07.461Z,99957.90
2023-09-12T03:40:11.974Z,99956.05
2023-09-12T03:41:14.802Z,99948.88
2023-09-12T03:42:17.280Z,99954.67
2023-09-12T03:43:19.740Z,99951.03
2023-09-12T03:44:22.011Z,99960.32
2023-09-12T03:45:25.512Z,99959.04
2023-09-12T03:46:28.254Z,99954.38
2023-09-12T03:47:30.840Z,99957.72
2023-09-12T03:48:35.638Z,99956.64
2023-09-12T03:49:37.975Z,99950.23
2023-09-12T03:50:40.443Z,99954.64
2023-09-12T03:51:42.959Z,99960.53
2023-09-12T03:52:45.678Z,99954.95
2023-09-12T03:53:50.025Z,99955.70
2023-09-12T03:54:52.459Z,99960.75
2023-09-12T03:55:54.768Z,99959.66
2023-09-12T03:56:57.581Z,99960.58
2023-09-12T03:58:00.419Z,99956.11
2023-09-12T03:59:03.949Z,99956.11
2023-09-12T04:00:09.401Z,99949.91
2023-09-12T04:01:22.022Z,99954.98
2023-09-12T04:02:27.542Z,99953.86
2023-09-12T04:03:29.852Z,99962.37
2023-09-12T04:04:32.344Z,99955.28
2023-09-12T04:05:35.641Z,99953.43
2023-09-12T04:06:40.115Z,99957.57
2023-09-12T04:07:43.651Z,99961.61
2023-09-12T04:08:46.616Z,99957.87
2023-09-12T04:09:49.005Z,99960.38
2023-09-12T04:10:53.488Z,99961.78
2023-09-12T04:11:57.837Z,99965.52
2023-09-12T04:13:00.464Z,99962.91
2023-09-12T04:14:03.743Z,99958.59
2023-09-12T04:15:07.615Z,99962.05
2023-09-12T04:16:11.449Z,99964.30
2023-09-12T04:17:17.859Z,99961.41
2023-09-12T04:18:20.417Z,99963.10
2023-09-12T04:19:22.906Z,99967.14
2023-09-12T04:20:26.522Z,99960.05
2023-09-12T04:21:29.204Z,99960.88
2023-09-12T04:22:32.899Z,99956.01
2023-09-12T04:23:35.539Z,99956.01
2023-09-12T04:24:38.703Z,99961.33
2023-09-12T04:25:46.980Z,99961.33
2023-09-12T04:26:51.704Z,99961.27
2023-09-12T04:27:54.978Z,99962.36
2023-09-12T04:28:57.306Z,99963.88
2023-09-12T04:29:59.681Z,99967.23
2023-09-12T04:31:05.734Z,99964.55
2023-09-12T04:32:08.847Z,99963.68
2023-09-12T04:33:11.210Z,99960.33
2023-09-12T04:34:13.648Z,99966.12
2023-09-12T04:35:16.827Z,99965.27
2023-09-12T04:36:22.452Z,99963.22
2023-09-12T04:37:24.770Z,99962.47
2023-09-12T04:38:27.923Z,99960.67
2023-09-12T04:39:30.532Z,99962.08
2023-09-12T04:40:36.278Z,99964.40
2023-09-12T04:41:39.011Z,99969.20
2023-09-12T04:42:41.369Z,99964.83
2023-09-12T04:43:45.303Z,99969.20
2023-09-12T04:44:47.868Z,99969.31
2023-09-12T04:45:51.342Z,99973.12
2023-09-12T04:46:54.546Z,99969.77
2023-09-12T04:47:56.770Z,99974.31
2023-09-12T04:48:59.449Z,99979.84
2023-09-12T04:50:02.550Z,99976.09
2023-09-12T04:51:05.528Z,99975.44
2023-09-12T04:52:08.075Z,99972.55
2023-09-12T04:53:11.277Z,99974.90
2023-09-12T04:54:13.529Z,99972.77
2023-09-12T04:55:15.678Z,99972.47
2023-09-12T04:56:18.245Z,99973.06
2023-09-12T04:57:21.078Z,99976.23
2023-09-12T04:58:23.604Z,99968.93
2023-09-12T04:59:26.004Z,99976.52
2023-09-12T05:00:28.479Z,99976.34
2023-09-12T05:01:30.873Z,99983.17
2023-09-12T05:02:33.493Z,99978.66
2023-09-12T05:03:37.721Z,99978.48
2023-09-12T05:04:40.775Z,99979.03
2023-09-12T05:05:46.716Z,99977.07
2023-09-12T05:06:49.451Z,99980.17
2023-09-12T05:07:54.644Z,99978.20
2023-09-12T05:08:57.382Z,99973.80
2023-09-12T05:10:00.260Z,99975.66
2023-09-12T05:11:03.474Z,99976.31
2023-09-12T05:12:06.208Z,99976.03
2023-09-12T05:13:09.100Z,99976.41
2023-09-12T05:14:11.931Z,99977.17
2023-09-12T05:15:14.803Z,99973.52
2023-09-12T05:16:17.583Z,99976.69
2023-09-12T05:17:20.446Z,99978.28
2023-09-12T05:18:25.023Z,99981.77
2023-09-12T05:19:27.378Z,99981.86
2023-09-12T05:20:29.694Z,99987.66
2023-09-12T05:21:32.384Z,99979.24
2023-09-12T05:22:34.638Z,99981.77
2023-09-12T05:23:37.296Z,99983.45
2023-09-12T05:24:40.720Z,99983.17
2023-09-12T05:25:43.935Z,99977.00
2023-09-12T05:26:48.951Z,99977.73
2023-09-12T05:27:51.470Z,99986.14
2023-09-12T05:28:53.752Z,99988.59
2023-09-12T05:29:56.474Z,99992.52
2023-09-12T05:30:59.236Z,99989.62
2023-09-12T05:32:02.585Z,99995.30
2023-09-12T05:33:05.224Z,99992.14
2023-09-12T05:34:08.067Z,99989.07
2023-09-12T05:35:21.332Z,99990.06
2023-09-12T05:36:17.055Z,99981.09
2023-09-12T05:37:21.719Z,99986.51
2023-09-12T05:38:24.195Z,99990.45
2023-09-12T05:39:26.576Z,99987.27
2023-09-12T05:40:30.332Z,99987.63
2023-09-12T05:41:32.837Z,99981.53
2023-09-12T05:42:35.247Z,99988.56
2023-09-12T05:43:37.720Z,99989.11
2023-09-12T05:44:40.648Z,99993.81
2023-09-12T05:45:45.692Z,99987.53
2023-09-12T05:46:50.345Z,99990.64
2023-09-12T05:47:53.006Z,99991.19
2023-09-12T05:48:55.712Z,99997.52
2023-09-12T05:50:01.899Z,99994.44
2023-09-12T05:51:05.530Z,99993.22
2023-09-12T05:52:07.984Z,99993.69
2023-09-12T05:53:10.884Z,99990.38
2023-09-12T05:54:16.750Z,99994.17
2023-09-12T05:55:19.247Z,99995.63
2023-09-12T05:56:21.658Z,99992.59
2023-09-12T05:57:24.547Z,100000.47
2023-09-12T05:58:27.374Z,99996.91
2023-09-12T05:59:32.102Z,99996.69
2023-09-12T06:00:34.961Z,99997.58
2023-09-12T06:01:37.191Z,100004.68
2023-09-12T06:02:40.766Z,99999.95
2023-09-12T06:03:43.372Z,99998.14
2023-09-12T06:04:46.517Z,100001.41
2023-09-12T06:05:49.541Z,99998.27
2023-09-12T06:06:52.869Z,99995.98
2023-09-12T06:07:56.043Z,99995.05
2023-09-12T06:08:59.339Z,99992.91
2023-09-12T06:10:03.282Z,99995.11
2023-09-12T06:11:06.000Z,99995.19
2023-09-12T06:12:08.480Z,99992.38
2023-09-12T06:13:13.176Z,99991.55
2023-09-12T06:14:15.518Z,99993.02
2023-09-12T06:15:18.474Z,99987.80
2023-09-12T06:16:21.113Z,99994.63
2023-09-12T06:17:23.497Z,99991.78
2023-09-12T06:18:28.178Z,99986.34
2023-09-12T06:19:31.104Z,99993.59
2023-09-12T06:20:34.526Z,99994.08
2023-09-12T06:21:36.800Z,99997.34
2023-09-12T06:22:39.240Z,99994.08
2023-09-12T06:23:42.546Z,99995.05
2023-09-12T06:24:45.495Z,99987.25
2023-09-12T06:25:48.804Z,99989.05
2023-09-12T06:26:51.352Z,99993.88
2023-09-12T06:27:53.686Z,99992.01
2023-09-12T06:28:57.175Z,99991.26
2023-09-12T06:29:59.857Z,99993.77
2023-09-12T06:31:02.460Z,99993.06
2023-09-12T06:32:06.349Z,99997.48
2023-09-12T06:33:08.769Z,99995.73
2023-09-12T06:34:11.254Z,99995.86
2023-09-12T06:35:13.460Z,99994.49
2023-09-12T06:36:16.829Z,99989.31
2023-09-12T06:37:19.207Z,99996.58
2023-09-12T06:38:23.796Z,99996.27
2023-09-12T06:39:26.703Z,99998.15
2023-09-12T06:40:29.189Z,100002.06
2023-09-12T06:41:31.468Z,100001.32
2023-09-12T06:42:33.948Z,100004.06
2023-09-12T06:43:37.050Z,100001.12
2023-09-12T06:44:39.831Z,100005.85
2023-09-12T06:45:45.969Z,99999.20
2023-09-12T06:46:48.605Z,100005.09
2023-09-12T06:47:51.164Z,100001.20
2023-09-12T06:48:53.525Z,100007.21
2023-09-12T06:49:56.977Z,100004.89
2023-09-12T06:50:59.458Z,100004.58
2023-09-12T06:52:02.231Z,100004.16
2023-09-12T06:53:07.597Z,100007.30
2023-09-12T06:54:09.890Z,100001.84
2023-09-12T06:55:12.186Z,100002.34
2023-09-12T06:56:15.417Z,100005.92
2023-09-12T06:57:17.560Z,100004.03
2023-09-12T06:58:19.924Z,100002.12
2023-09-12T06:59:22.172Z,100009.69
2023-09-12T07:00:25.673Z,100012.86
2023-09-12T07:01:28.136Z,100008.43
2023-09-12T07:02:30.984Z,100012.74
2023-09-12T07:03:34.747Z,100013.25
2023-09-12T07:04:37.411Z,100014.94
2023-09-12T07:05:40.668Z,100016.63
2023-09-12T07:06:43.621Z,100014.50
2023-09-12T07:07:46.146Z,100014.30
2023-09-12T07:08:48.754Z,100012.61
2023-09-12T07:09:51.766Z,100007.55
2023-09-12T07:12:07.596Z,100008.33
2023-09-12T07:13:10.102Z,100007.41
2023-09-12T07:14:13.152Z,100015.10
2023-09-12T07:15:15.618Z,100013.92
2023-09-12T07:16:19.138Z,100005.81
2023-09-12T07:17:21.579Z,100008.98
2023-09-12T07:18:24.380Z,100001.91
2023-09-12T07:19:26.716Z,100007.30
2023-09-12T07:20:28.860Z,100006.84
2023-09-12T07:21:33.699Z,100007.34
2023-09-12T07:22:36.207Z,100010.39
2023-09-12T07:23:38.655Z,99995.66
2023-09-12T07:24:41.184Z,100002.98
2023-09-12T07:25:43.501Z,100002.98
2023-09-12T07:26:47.494Z,100002.66
2023-09-12T07:27:50.256Z,100003.15
2023-09-12T07:28:52.978Z,100005.66
2023-09-12T07:29:55.350Z,100004.62
2023-09-12T07:30:58.729Z,100004.38
2023-09-12T07:32:02.157Z,100007.63
2023-09-12T07:33:05.227Z,100009.19
2023-09-12T07:34:09.499Z,100008.97
2023-09-12T07:35:12.524Z,100011.36
2023-09-12T07:36:15.954Z,100009.34
2023-09-12T07:37:19.456Z,100003.25
2023-09-12T07:38:22.452Z,100008.05
2023-09-12T07:39:25.159Z,100006.16
2023-09-12T07:40:28.124Z,100013.08
2023-09-12T07:41:33.291Z,100012.86
2023-09-12T07:42:35.879Z,100015.89
2023-09-12T07:43:38.586Z,100014.34
2023-09-12T07:44:40.958Z,100014.34
2023-09-12T07:45:43.360Z,100011.46
2023-09-12T07:46:45.947Z,100018.42
2023-09-12T07:47:49.407Z,100018.42
2023-09-12T07:48:53.690Z,100012.32
2023-09-12T07:49:57.221Z,100013.22
2023-09-12T07:51:02.007Z,100013.22
2023-09-12T07:52:05.075Z,100023.30
2023-09-12T07:53:08.313Z,100023.05
2023-09-12T07:54:10.888Z,100021.62
2023-09-12T07:55:13.411Z,100022.22
2023-09-12T07:56:15.900Z,100026.67
2023-09-12T07:57:18.296Z,100026.41
2023-09-12T07:58:21.389Z,100027.02
2023-09-12T07:59:23.924Z,100018.76
2023-09-12T08:00:26.412Z,100021.27
2023-09-12T08:01:28.984Z,100016.59
2023-09-12T08:02:31.508Z,100018.28
2023-09-12T08:03:36.623Z,100021.39
2023-09-12T08:04:39.289Z,100017.80
2023-09-12T08:05:41.867Z,100020.78
2023-09-12T08:06:56.990Z,100022.84
2023-09-12T08:07:48.548Z,100022.59
2023-09-12T08:08:50.953Z,100019.59
2023-09-12T08:09:55.471Z,100026.92
2023-09-12T08:10:58.456Z,100022.22
2023-09-12T08:12:00.643Z,100019.22
2023-09-12T08:13:03.970Z,100025.00
2023-09-12T08:14:06.342Z,100019.72
2023-09-12T08:15:10.826Z,100021.50
2023-09-12T08:16:14.507Z,100019.45
2023-09-12T08:17:17.667Z,100022.23
2023-09-12T08:18:20.614Z,100016.59
2023-09-12T08:19:23.936Z,100021.27
2023-09-12T08:20:27.801Z,100012.03
2023-09-12T08:21:31.467Z,100007.94
2023-09-12T08:22:37.864Z,100021.14
2023-09-12T08:23:40.368Z,100008.62
2023-09-12T08:24:44.015Z,100011.49
2023-09-12T08:25:46.932Z,100014.48
2023-09-12T08:26:50.758Z,100008.94
2023-09-12T08:27:53.378Z,100012.89
2023-09-12T08:28:56.044Z,100010.97
2023-09-12T08:29:58.538Z,100018.50
2023-09-12T08:31:00.942Z,100016.20
2023-09-12T08:32:03.921Z,100018.02
2023-09-12T08:33:07.448Z,100012.02
2023-09-12T08:34:09.910Z,100015.83
2023-09-12T08:35:14.114Z,100019.43
2023-09-12T08:36:17.200Z,100017.11
2023-09-12T08:37:19.668Z,100011.34
2023-09-12T08:38:21.843Z,100013.64
2023-09-12T08:39:26.767Z,100012.55
2023-09-12T08:40:30.985Z,100018.55
2023-09-12T08:41:34.456Z,100020.92
2023-09-12T08:42:45.049Z,100022.36
2023-09-12T08:43:48.947Z,100020.41
2023-09-12T08:44:51.247Z,100017.28
2023-09-12T08:45:54.271Z,100011.72
2023-09-12T08:46:58.491Z,100014.84
2023-09-12T08:48:02.534Z,100014.31
2023-09-12T08:49:07.552Z,100017.30
2023-09-12T08:50:13.608Z,100015.95
2023-09-12T08:51:15.970Z,100007.55
2023-09-12T08:52:18.227Z,100010.66
2023-09-12T08:53:22.398Z,100011.92
2023-09-12T08:54:24.736Z,100012.64
2023-09-12T08:55:27.234Z,100016.77
2023-09-12T08:56:29.973Z,100007.30
2023-09-12T08:57:34.110Z,100014.27
2023-09-12T08:58:36.959Z,100010.13
2023-09-12T08:59:42.742Z,100012.97
2023-09-12T09:00:45.544Z,100013.98
2023-09-12T09:01:50.595Z,100006.34
2023-09-12T09:02:53.761Z,100011.09
2023-09-12T09:03:57.511Z,100012.20
2023-09-12T09:05:04.640Z,100008.45
2023-09-12T09:06:10.204Z,100016.92
2023-09-12T09:07:14.631Z,100018.36
2023-09-12T09:08:19.345Z,100023.11
2023-09-12T09:09:24.092Z,100010.02
2023-09-12T09:10:38.336Z,100014.64
2023-09-12T09:11:33.326Z,100014.89
2023-09-12T09:12:36.933Z,100019.93
2023-09-12T09:13:39.783Z,100013.28
2023-09-12T09:14:42.882Z,100015.50
2023-09-12T09:15:45.568Z,100010.92
2023-09-12T09:16:47.951Z,100012.59
2023-09-12T09:17:51.708Z,100008.73
2023-09-12T09:19:03.920Z,100009.87
2023-09-12T09:20:10.666Z,100014.63
2023-09-12T09:21:19.163Z,100010.04
2023-09-12T09:22:23.655Z,100009.33
2023-09-12T09:23:26.515Z,100008.91
2023-09-12T09:24:29.018Z,100007.39
2023-09-12T09:25:31.649Z,100007.53
2023-09-12T09:26:51.742Z,100012.41
2023-09-12T09:27:54.962Z,100004.46
2023-09-12T09:29:06.092Z,100011.97
2023-09-12T09:30:09.734Z,100005.31
2023-09-12T09:31:14.320Z,100007.27
2023-09-12T09:32:22.049Z,100003.53
2023-09-12T09:33:24.832Z,100005.34
2023-09-12T09:34:33.367Z,100004.22
2023-09-12T09:35:36.532Z,100000.34
2023-09-12T09:36:45.380Z,99998.38
2023-09-12T09:37:47.879Z,100005.64
2023-09-12T09:38:50.460Z,100002.13
2023-09-12T09:39:53.045Z,100008.30
2023-09-12T09:41:58.667Z,100001.02
2023-09-12T09:43:02.038Z,99998.82
2023-09-12T09:44:08.985Z,100003.83
2023-09-12T09:45:11.930Z,100001.59
2023-09-12T09:46:18.730Z,100006.07
2023-09-12T09:47:21.988Z,100001.06
2023-09-12T09:48:29.212Z,100000.36
2023-09-12T09:49:37.463Z,99998.53
2023-09-12T09:50:40.446Z,99998.00
2023-09-12T09:51:45.912Z,99994.64
2023-09-12T09:52:57.043Z,99996.77
2023-09-12T09:54:01.834Z,99997.73
2023-09-12T09:55:14.130Z,99990.89
2023-09-12T09:56:17.759Z,99994.92
2023-09-12T09:57:26.783Z,99989.35
2023-09-12T09:58:31.211Z,99988.23
2023-09-12T09:59:40.109Z,99989.36
2023-09-12T10:00:47.755Z,99991.28
2023-09-12T10:02:02.458Z,99990.75
2023-09-12T10:03:22.300Z,99989.92
2023-09-12T10:05:54.172Z,99990.46
2023-09-12T10:07:15.694Z,99986.84
2023-09-12T10:08:20.582Z,99986.94
2023-09-12T10:09:25.658Z,99989.05
2023-09-12T10:10:31.514Z,99980.78
2023-09-12T10:11:36.257Z,99989.84
2023-09-12T10:12:42.343Z,99985.91
2023-09-12T10:15:01.702Z,99987.28
2023-09-12T10:16:05.885Z,99981.30
2023-09-12T10:17:11.109Z,99987.70
2023-09-12T10:19:28.696Z,99993.41
2023-09-12T10:20:47.902Z,99992.03
2023-09-12T10:22:03.702Z,99988.52
2023-09-12T10:23:11.916Z,99980.02
2023-09-12T10:24:16.398Z,99994.95
2023-09-12T10:25:19.048Z,99985.02
2023-09-12T10:26:24.039Z,99983.05
2023-09-12T10:27:27.014Z,99990.31
2023-09-12T10:28:29.837Z,99981.97
2023-09-12T10:29:32.556Z,99982.08
2023-09-12T10:30:37.288Z,99986.95
2023-09-12T10:31:40.594Z,99986.95
2023-09-12T10:32:46.850Z,99987.23
2023-09-12T10:33:51.714Z,99994.65
2023-09-12T10:34:56.869Z,99976.34
2023-09-12T10:36:01.442Z,99983.17
2023-09-12T10:37:05.926Z,99988.09
2023-09-12T10:38:09.879Z,99990.31
2023-09-12T10:39:13.217Z,99981.38
2023-09-12T10:40:18.129Z,99976.72
2023-09-12T10:41:23.399Z,99979.06
2023-09-12T10:42:30.462Z,99972.73
2023-09-12T10:43:36.335Z,99979.12
2023-09-12T10:44:39.304Z,99974.34
2023-09-12T10:45:42.275Z,99977.26
2023-09-12T10:46:48.943Z,99969.58
2023-09-12T10:47:51.991Z,99979.53
2023-09-12T10:48:55.221Z,99974.22
2023-09-12T10:49:57.765Z,99975.86
2023-09-12T10:51:02.526Z,99967.77
2023-09-12T10:52:05.803Z,99971.69
2023-09-12T10:53:12.703Z,99972.88
2023-09-12T10:55:37.580Z,99965.94
2023-09-12T10:56:41.227Z,99967.23
2023-09-12T10:58:05.090Z,99964.67
2023-09-12T10:59:10.154Z,99969.98
2023-09-12T11:00:13.906Z,99967.64
2023-09-12T11:01:27.989Z,99964.45
2023-09-12T11:02:39.886Z,99964.45
2023-09-12T11:03:42.902Z,99961.47
2023-09-12T11:04:45.542Z,99972.92
2023-09-12T11:05:54.465Z,99971.34
2023-09-12T11:06:58.811Z,99957.02
2023-09-12T11:08:04.271Z,99959.76
2023-09-12T11:09:20.545Z,99955.38
2023-09-12T11:10:23.564Z,99957.42
2023-09-12T11:11:25.911Z,99956.00
2023-09-12T11:12:37.769Z,99950.36
2023-09-12T11:13:44.559Z,99954.98
2023-09-12T11:15:08.984Z,99952.32
2023-09-12T11:17:29.471Z,99949.88
2023-09-12T11:18:31.833Z,99949.03
2023-09-12T11:19:49.846Z,99956.45
2023-09-12T11:21:00.844Z,99947.72
2023-09-12T11:22:06.726Z,99949.22
2023-09-12T11:23:12.506Z,99945.19
2023-09-12T11:24:16.346Z,99942.70
2023-09-12T11:25:23.552Z,99931.86
2023-09-12T11:26:26.267Z,99937.18
2023-09-12T11:27:34.691Z,99938.75
2023-09-12T11:28:37.450Z,99937.36
2023-09-12T11:29:41.318Z,99937.77
2023-09-12T11:30:53.861Z,99942.80
2023-09-12T11:32:00.085Z,99932.02
2023-09-12T11:33:06.257Z,99933.00
2023-09-12T11:34:11.214Z,99940.47
2023-09-12T11:35:15.088Z,99937.59
2023-09-12T11:36:20.148Z,99939.53
2023-09-12T11:37:27.239Z,99927.42
2023-09-12T11:38:32.385Z,99932.63
2023-09-12T11:39:36.814Z,99929.65
2023-09-12T11:40:42.966Z,99926.20
2023-09-12T11:41:45.326Z,99931.05
2023-09-12T11:42:50.461Z,99939.62
2023-09-12T11:43:53.441Z,99928.04
2023-09-12T11:44:56.536Z,99936.73
2023-09-12T11:46:01.211Z,99929.78
2023-09-12T11:47:06.512Z,99936.75
2023-09-12T11:48:09.682Z,99938.13
2023-09-12T11:49:12.703Z,99933.81
2023-09-12T11:50:32.647Z,99930.13
2023-09-12T11:51:36.055Z,99928.12
2023-09-12T11:52:39.358Z,99932.15
2023-09-12T11:53:42.265Z,99930.45
2023-09-12T11:54:46.308Z,99930.29
2023-09-12T11:55:54.578Z,99925.83
2023-09-12T11:56:58.940Z,99923.49
2023-09-12T11:58:02.485Z,99933.84
2023-09-12T11:59:05.177Z,99925.16
2023-09-12T12:00:11.321Z,99922.14
2023-09-12T12:01:17.311Z,99924.31
2023-09-12T12:02:20.052Z,99925.62
2023-09-12T12:03:25.085Z,99923.30
2023-09-12T12:04:29.443Z,99927.28
2023-09-12T12:05:35.792Z,99924.63
2023-09-12T12:06:40.562Z,99928.09
2023-09-12T12:07:45.559Z,99917.41
2023-09-12T12:08:48.231Z,99921.77
2023-09-12T12:09:51.645Z,99920.59
2023-09-12T12:10:55.296Z,99919.30
2023-09-12T12:12:01.930Z,99919.78
2023-09-12T12:13:04.986Z,99920.45
2023-09-12T12:14:12.488Z,99921.95
2023-09-12T12:15:15.099Z,99916.10
2023-09-12T12:16:18.612Z,99920.89
2023-09-12T12:17:22.290Z,99915.33
2023-09-12T12:18:25.235Z,99916.94
2023-09-12T12:19:28.274Z,99916.34
2023-09-12T12:20:30.918Z,99914.15
2023-09-12T12:21:34.275Z,99916.41
2023-09-12T12:22:40.874Z,99913.58
2023-09-12T12:23:44.984Z,99911.97
2023-09-12T12:24:48.357Z,99910.72
2023-09-12T12:25:50.757Z,99909.19
2023-09-12T12:26:57.806Z,99907.27
2023-09-12T12:28:00.974Z,99909.91
2023-09-12T12:29:05.577Z,99911.67
2023-09-12T12:30:14.218Z,99910.59
2023-09-12T12:31:17.651Z,99908.20
2023-09-12T12:32:21.583Z,99901.92
2023-09-12T12:34:48.381Z,99906.39
2023-09-12T12:35:43.763Z,99907.67
2023-09-12T12:35:45.464Z,99901.58
2023-09-12T12:36:53.297Z,99898.62